createdAt,value
2019-01-10T00:01:53.422Z,6.53
2019-01-10T00:03:58.749Z,8.57
2019-01-10T00:06:03.514Z,7.40
2019-01-10T00:08:11.049Z,7.80
2019-01-10T00:10:19.417Z,6.47
2019-01-10T00:12:24.295Z,5.00
2019-01-10T00:14:29.435Z,4.57
2019-01-10T00:16:34.679Z,4.70
2019-01-10T00:18:58.853Z,3.73
2019-01-10T00:21:03.808Z,3.17
2019-01-10T00:23:08.652Z,3.30
2019-01-10T00:25:14.926Z,3.30
2019-01-10T00:27:19.831Z,3.53
2019-01-10T00:29:24.666Z,4.30
2019-01-10T00:31:29.621Z,4.53
2019-01-10T00:33:34.493Z,5.77
2019-01-10T00:35:42.484Z,6.33
2019-01-10T00:37:47.952Z,7.00
2019-01-10T00:39:52.720Z,6.70
2019-01-10T00:41:57.671Z,6.50
2019-01-10T00:44:02.500Z,6.83
2019-01-10T00:46:07.394Z,7.40
2019-01-10T00:48:12.206Z,6.50
2019-01-10T00:50:19.516Z,6.73
2019-01-10T00:52:24.315Z,5.97
2019-01-10T00:54:29.143Z,5.60
2019-01-10T00:56:34.523Z,4.60
2019-01-10T00:58:39.411Z,5.03
2019-01-10T01:00:44.584Z,4.40
2019-01-10T01:02:49.945Z,3.63
2019-01-10T01:04:55.169Z,3.60
2019-01-10T01:06:59.988Z,3.50
2019-01-10T01:09:06.817Z,3.10
2019-01-10T01:11:11.669Z,3.13
2019-01-10T01:13:16.832Z,3.60
2019-01-10T01:15:21.715Z,3.60
2019-01-10T01:17:26.985Z,4.20
2019-01-10T01:19:32.115Z,4.77
2019-01-10T01:21:37.255Z,4.10
2019-01-10T01:23:42.482Z,4.20
2019-01-10T01:25:47.610Z,3.47
2019-01-10T01:27:52.676Z,4.37
2019-01-10T01:29:57.912Z,3.10
2019-01-10T01:32:03.741Z,3.33
2019-01-10T01:34:09.058Z,2.87
2019-01-10T01:36:14.164Z,3.03
2019-01-10T01:38:20.049Z,3.10
2019-01-10T01:40:25.172Z,3.40
2019-01-10T01:42:29.947Z,4.97
2019-01-10T01:44:35.140Z,5.20
2019-01-10T01:46:40.371Z,6.67
2019-01-10T01:48:45.466Z,6.40
2019-01-10T01:50:50.286Z,5.73
2019-01-10T01:52:55.060Z,6.90
2019-01-10T01:54:59.892Z,5.37
2019-01-10T01:57:04.659Z,5.00
2019-01-10T01:59:09.508Z,4.90
2019-01-10T02:01:14.748Z,4.23
2019-01-10T02:03:19.998Z,4.40
2019-01-10T02:05:24.894Z,3.30
2019-01-10T02:07:30.028Z,3.23
2019-01-10T02:09:37.444Z,3.53
2019-01-10T02:11:42.316Z,3.17
2019-01-10T02:13:47.671Z,3.20
2019-01-10T02:15:54.186Z,2.80
2019-01-10T02:17:59.022Z,3.67
2019-01-10T02:20:04.657Z,3.03
2019-01-10T02:22:09.566Z,2.60
2019-01-10T02:24:15.476Z,2.83
2019-01-10T02:26:20.455Z,2.93
2019-01-10T02:28:25.242Z,2.00
2019-01-10T02:30:30.121Z,2.70
2019-01-10T02:32:34.973Z,2.73
2019-01-10T02:34:39.904Z,2.30
2019-01-10T02:36:45.094Z,2.70
2019-01-10T02:38:49.858Z,2.53
2019-01-10T02:40:54.750Z,2.97
2019-01-10T02:43:00.283Z,3.07
2019-01-10T02:45:06.304Z,2.80
2019-01-10T02:47:11.333Z,2.13
2019-01-10T02:49:16.816Z,2.73
2019-01-10T02:51:22.097Z,2.43
2019-01-10T02:53:26.905Z,2.47
2019-01-10T02:55:32.074Z,2.40
2019-01-10T02:57:36.860Z,3.10
2019-01-10T02:59:41.614Z,2.30
2019-01-10T03:01:46.395Z,2.90
2019-01-10T03:03:51.126Z,2.57
2019-01-10T03:05:55.969Z,2.50
2019-01-10T03:08:01.063Z,2.73
2019-01-10T03:10:08.336Z,1.97
2019-01-10T03:12:13.237Z,2.83
2019-01-10T03:14:18.380Z,2.93
2019-01-10T03:16:23.109Z,3.37
2019-01-10T03:18:27.851Z,2.80
2019-01-10T03:20:32.616Z,2.50
2019-01-10T03:22:37.421Z,3.00
2019-01-10T03:24:42.348Z,2.17
2019-01-10T03:26:47.425Z,2.53
2019-01-10T03:28:52.178Z,2.30
2019-01-10T03:30:56.939Z,2.50
2019-01-10T03:33:01.759Z,2.60
2019-01-10T03:35:08.445Z,2.60
2019-01-10T03:37:13.176Z,2.60
2019-01-10T03:39:17.945Z,2.93
2019-01-10T03:41:22.897Z,2.87
2019-01-10T03:43:27.635Z,3.03
2019-01-10T03:45:32.795Z,3.50
2019-01-10T03:47:37.517Z,2.50
2019-01-10T03:49:42.330Z,2.77
2019-01-10T03:51:47.793Z,3.00
2019-01-10T03:53:52.540Z,3.00
2019-01-10T03:55:57.426Z,3.60
2019-01-10T03:58:02.173Z,2.60
2019-01-10T04:00:10.282Z,3.70
2019-01-10T04:02:16.280Z,3.53
2019-01-10T04:04:21.016Z,2.73
2019-01-10T04:06:25.864Z,4.03
2019-01-10T04:08:30.832Z,4.63
2019-01-10T04:10:39.575Z,4.30
2019-01-10T04:12:44.607Z,4.13
2019-01-10T04:14:52.870Z,4.03
2019-01-10T04:16:57.677Z,5.80
2019-01-10T04:19:02.477Z,5.80
2019-01-10T04:21:16.685Z,6.00
2019-01-10T04:23:13.848Z,7.30
2019-01-10T04:25:19.076Z,7.13
2019-01-10T04:27:24.563Z,8.23
2019-01-10T04:29:29.307Z,8.33
2019-01-10T04:31:34.094Z,8.17
2019-01-10T04:33:38.934Z,8.27
2019-01-10T04:35:43.703Z,6.87
2019-01-10T04:37:48.866Z,6.90
2019-01-10T04:39:53.948Z,6.60
2019-01-10T04:41:58.653Z,4.63
2019-01-10T04:44:07.153Z,3.80
2019-01-10T04:46:09.814Z,3.70
2019-01-10T04:48:14.598Z,4.63
2019-01-10T04:50:19.848Z,5.20
2019-01-10T04:52:24.573Z,7.33
2019-01-10T04:54:29.641Z,6.37
2019-01-10T04:56:34.359Z,4.60
2019-01-10T04:58:39.086Z,3.80
2019-01-10T05:00:43.848Z,3.80
2019-01-10T05:02:49.073Z,4.37
2019-01-10T05:04:53.842Z,5.80
2019-01-10T05:06:58.792Z,5.50
2019-01-10T05:09:04.075Z,5.33
2019-01-10T05:11:11.346Z,5.50
2019-01-10T05:13:16.391Z,6.57
2019-01-10T05:15:21.503Z,6.60
2019-01-10T05:17:26.274Z,6.97
2019-01-10T05:19:31.350Z,7.50
2019-01-10T05:21:36.129Z,7.33
2019-01-10T05:23:40.835Z,6.33
2019-01-10T05:25:45.537Z,4.90
2019-01-10T05:27:50.334Z,5.03
2019-01-10T05:29:55.217Z,5.07
2019-01-10T05:32:02.465Z,3.80
2019-01-10T05:34:06.671Z,3.40
2019-01-10T05:36:11.381Z,4.00
2019-01-10T05:38:16.283Z,3.80
2019-01-10T05:40:21.570Z,3.90
2019-01-10T05:42:26.273Z,3.70
2019-01-10T05:44:31.960Z,3.90
2019-01-10T05:46:37.164Z,4.20
2019-01-10T05:48:46.964Z,3.83
2019-01-10T05:50:48.734Z,3.50
2019-01-10T05:52:56.597Z,3.67
2019-01-10T05:55:02.150Z,5.23
2019-01-10T05:57:07.247Z,3.30
2019-01-10T05:59:11.977Z,3.10
2019-01-10T06:01:17.199Z,3.40
2019-01-10T06:03:21.974Z,3.43
2019-01-10T06:05:26.902Z,2.77
2019-01-10T06:07:32.499Z,3.07
2019-01-10T06:09:38.439Z,3.40
2019-01-10T06:11:43.223Z,4.90
2019-01-10T06:13:48.399Z,4.43
2019-01-10T06:15:53.208Z,4.50
2019-01-10T06:17:58.408Z,3.80
2019-01-10T06:20:03.593Z,3.17
2019-01-10T06:22:18.847Z,3.70
2019-01-10T06:24:24.116Z,3.90
2019-01-10T06:26:28.932Z,3.40
2019-01-10T06:28:33.807Z,3.07
2019-01-10T06:30:38.990Z,3.67
2019-01-10T06:32:44.506Z,2.70
2019-01-10T06:34:49.214Z,3.23
2019-01-10T06:36:54.447Z,3.23
2019-01-10T06:39:01.707Z,3.17
2019-01-10T06:41:06.347Z,2.87
2019-01-10T06:43:11.558Z,4.33
2019-01-10T06:45:16.768Z,3.60
2019-01-10T06:47:21.788Z,4.33
2019-01-10T06:49:26.908Z,5.77
2019-01-10T06:51:31.636Z,3.97
2019-01-10T06:53:36.583Z,7.27
2019-01-10T06:55:42.651Z,5.57
2019-01-10T06:57:47.666Z,7.00
2019-01-10T06:59:52.355Z,6.70
2019-01-10T07:01:57.392Z,5.17
2019-01-10T07:04:02.139Z,5.70
2019-01-10T07:06:06.877Z,5.50
2019-01-10T07:08:12.405Z,5.10
2019-01-10T07:10:23.343Z,5.40
2019-01-10T07:12:28.034Z,4.20
2019-01-10T07:14:33.226Z,4.90
2019-01-10T07:16:38.457Z,4.33
2019-01-10T07:18:43.209Z,4.40
2019-01-10T07:20:48.322Z,4.37
2019-01-10T07:22:54.360Z,7.17
2019-01-10T07:24:59.343Z,10.10
2019-01-10T07:27:04.169Z,13.30
2019-01-10T07:29:10.383Z,15.53
2019-01-10T07:31:31.492Z,14.80
2019-01-10T07:33:39.018Z,11.17
2019-01-10T07:35:43.844Z,12.47
2019-01-10T07:37:58.717Z,11.23
2019-01-10T07:40:03.507Z,9.53
2019-01-10T07:42:08.628Z,7.53
2019-01-10T07:44:13.340Z,5.30
2019-01-10T07:46:18.054Z,7.00
2019-01-10T07:48:22.819Z,8.30
2019-01-10T07:50:33.072Z,8.70
2019-01-10T07:52:37.864Z,5.87
2019-01-10T07:54:42.989Z,6.07
2019-01-10T07:56:47.721Z,7.00
2019-01-10T07:58:52.497Z,7.50
2019-01-10T08:00:57.249Z,5.90
2019-01-10T08:03:02.182Z,6.43
2019-01-10T08:05:07.138Z,10.10
2019-01-10T08:07:12.278Z,11.60
2019-01-10T08:09:17.705Z,10.17
2019-01-10T08:11:22.585Z,13.47
2019-01-10T08:13:27.763Z,10.80
2019-01-10T08:15:35.348Z,7.67
2019-01-10T08:17:40.221Z,6.60
2019-01-10T08:19:44.981Z,5.40
2019-01-10T08:21:49.734Z,7.53
2019-01-10T08:23:54.451Z,7.00
2019-01-10T08:26:00.096Z,9.90
2019-01-10T08:28:05.124Z,7.47
2019-01-10T08:30:14.299Z,9.07
2019-01-10T08:32:19.580Z,10.63
2019-01-10T08:34:24.295Z,10.33
2019-01-10T08:36:32.535Z,9.47
2019-01-10T08:38:35.385Z,13.00
2019-01-10T08:40:40.102Z,16.50
2019-01-10T08:42:44.917Z,26.70
2019-01-10T08:44:49.600Z,25.30
2019-01-10T08:46:54.317Z,14.73
2019-01-10T08:48:59.240Z,11.10
2019-01-10T08:51:04.747Z,12.20
2019-01-10T08:53:09.711Z,11.90
2019-01-10T08:55:14.523Z,10.90
2019-01-10T08:57:19.219Z,11.37
2019-01-10T08:59:24.385Z,9.27
2019-01-10T09:01:29.250Z,7.20
2019-01-10T09:03:34.073Z,7.67
2019-01-10T09:05:39.244Z,6.90
2019-01-10T09:07:43.994Z,7.40
2019-01-10T09:09:51.872Z,6.57
2019-01-10T09:11:56.672Z,6.30
2019-01-10T09:14:01.520Z,5.50
2019-01-10T09:16:06.319Z,5.80
2019-01-10T09:18:11.159Z,4.97
2019-01-10T09:20:16.169Z,4.90
2019-01-10T09:22:23.666Z,5.03
2019-01-10T09:24:28.719Z,4.90
2019-01-10T09:26:37.657Z,5.13
2019-01-10T09:28:43.785Z,5.50
2019-01-10T09:30:48.538Z,5.80
2019-01-10T09:32:53.675Z,5.00
2019-01-10T09:34:58.385Z,4.10
2019-01-10T09:37:03.962Z,4.20
2019-01-10T09:39:10.080Z,4.23
2019-01-10T09:41:14.784Z,5.20
2019-01-10T09:43:19.951Z,4.80
2019-01-10T09:45:26.114Z,4.13
2019-01-10T09:47:30.937Z,3.83
2019-01-10T09:49:36.131Z,3.93
2019-01-10T09:51:41.062Z,3.50
2019-01-10T09:53:45.898Z,3.60
2019-01-10T09:55:50.714Z,5.03
2019-01-10T09:57:55.518Z,4.00
2019-01-10T10:00:00.348Z,4.37
2019-01-10T10:02:05.597Z,3.73
2019-01-10T10:04:10.774Z,4.70
2019-01-10T10:06:15.495Z,4.80
2019-01-10T10:08:20.291Z,6.77
2019-01-10T10:10:25.774Z,5.80
2019-01-10T10:12:30.533Z,4.90
2019-01-10T10:14:35.297Z,4.30
2019-01-10T10:16:40.068Z,3.93
2019-01-10T10:18:44.932Z,4.47
2019-01-10T10:20:50.184Z,4.00
2019-01-10T10:22:55.186Z,3.97
2019-01-10T10:24:59.948Z,4.20
2019-01-10T10:27:05.267Z,4.17
2019-01-10T10:29:10.211Z,4.23
2019-01-10T10:31:14.983Z,5.67
2019-01-10T10:33:19.742Z,4.63
2019-01-10T10:35:26.865Z,4.63
2019-01-10T10:37:34.364Z,4.20
2019-01-10T10:39:46.843Z,5.00
2019-01-10T10:41:53.236Z,5.50
2019-01-10T10:44:05.232Z,5.70
2019-01-10T10:46:15.051Z,5.67
2019-01-10T10:48:24.717Z,6.23
2019-01-10T10:50:35.115Z,7.77
2019-01-10T10:52:44.405Z,6.47
2019-01-10T10:54:53.022Z,7.33
2019-01-10T10:57:03.171Z,9.50
2019-01-10T10:59:22.697Z,7.43
2019-01-10T11:01:31.885Z,6.80
2019-01-10T11:03:39.093Z,7.07
2019-01-10T11:05:43.994Z,6.73
2019-01-10T11:07:49.014Z,5.17
2019-01-10T11:09:58.317Z,10.07
2019-01-10T11:12:11.019Z,9.67
2019-01-10T11:14:16.988Z,5.73
2019-01-10T11:16:25.325Z,8.77
2019-01-10T11:18:31.765Z,9.57
2019-01-10T11:20:37.569Z,12.87
2019-01-10T11:22:51.816Z,8.60
2019-01-10T11:24:56.794Z,9.57
2019-01-10T11:27:06.799Z,10.07
2019-01-10T11:29:17.361Z,5.83
2019-01-10T11:31:24.152Z,5.67
2019-01-10T11:33:30.654Z,5.37
2019-01-10T11:35:36.841Z,4.00
2019-01-10T11:37:43.079Z,4.90
2019-01-10T11:39:49.345Z,5.43
2019-01-10T11:41:56.991Z,6.20
2019-01-10T11:44:04.534Z,6.40
2019-01-10T11:46:10.036Z,5.30
2019-01-10T11:48:16.034Z,5.07
2019-01-10T11:50:24.498Z,7.10
2019-01-10T11:52:31.178Z,4.50
2019-01-10T11:54:40.163Z,4.60
2019-01-10T11:56:45.429Z,5.97
2019-01-10T11:58:52.937Z,6.10
2019-01-10T12:00:57.968Z,4.57
2019-01-10T12:03:08.092Z,8.33
2019-01-10T12:05:13.179Z,4.57
2019-01-10T12:07:23.411Z,9.40
2019-01-10T12:09:30.233Z,4.97
2019-01-10T12:11:35.543Z,7.00
2019-01-10T12:13:40.347Z,4.10
2019-01-10T12:15:45.183Z,6.47
2019-01-10T12:17:50.064Z,25.83
2019-01-10T12:19:56.738Z,7.90
2019-01-10T12:22:01.685Z,3.57
2019-01-10T12:24:06.437Z,4.90
2019-01-10T12:26:11.667Z,7.30
2019-01-10T12:28:33.164Z,4.00
2019-01-10T12:30:38.205Z,2.67
2019-01-10T12:32:43.088Z,3.50
2019-01-10T12:34:48.252Z,3.13
2019-01-10T12:37:00.301Z,3.20
2019-01-10T12:38:59.978Z,3.00
2019-01-10T12:41:04.852Z,3.53
2019-01-10T12:43:09.768Z,4.93
2019-01-10T12:45:16.066Z,10.63
2019-01-10T12:47:21.974Z,4.60
2019-01-10T12:49:26.716Z,3.50
2019-01-10T12:51:31.776Z,3.13
2019-01-10T12:53:36.533Z,3.83
2019-01-10T12:55:44.415Z,3.00
2019-01-10T12:57:49.303Z,3.50
2019-01-10T12:59:54.071Z,2.90
2019-01-10T13:01:58.850Z,3.33
2019-01-10T13:04:03.618Z,3.20
2019-01-10T13:06:08.381Z,3.50
2019-01-10T13:08:13.183Z,3.30
2019-01-10T13:10:19.863Z,4.20
2019-01-10T13:12:24.968Z,4.17
2019-01-10T13:14:29.773Z,3.27
2019-01-10T13:16:34.561Z,3.73
2019-01-10T13:18:39.351Z,3.97
2019-01-10T13:20:44.276Z,4.70
2019-01-10T13:22:49.294Z,5.47
2019-01-10T13:24:54.133Z,4.80
2019-01-10T13:26:59.263Z,3.70
2019-01-10T13:29:04.322Z,5.20
2019-01-10T13:31:09.108Z,5.00
2019-01-10T13:33:14.421Z,9.37
2019-01-10T13:35:19.343Z,20.77
2019-01-10T13:37:24.075Z,19.50
2019-01-10T13:39:29.069Z,10.00
2019-01-10T13:41:33.735Z,9.87
2019-01-10T13:43:48.630Z,6.37
2019-01-10T13:45:55.531Z,3.93
2019-01-10T13:48:00.324Z,4.40
2019-01-10T13:50:17.818Z,5.67
2019-01-10T13:52:22.964Z,3.30
2019-01-10T13:54:27.625Z,4.00
2019-01-10T13:56:32.404Z,4.20
2019-01-10T13:58:37.135Z,3.20
2019-01-10T14:00:41.821Z,3.03
2019-01-10T14:02:47.004Z,3.87
2019-01-10T14:04:51.694Z,2.60
2019-01-10T14:06:56.456Z,4.97
2019-01-10T14:09:01.331Z,3.60
2019-01-10T14:11:06.614Z,3.20
2019-01-10T14:13:11.738Z,5.47
2019-01-10T14:15:22.637Z,11.53
2019-01-10T14:17:27.709Z,9.50
2019-01-10T14:19:32.740Z,9.20
2019-01-10T14:21:37.868Z,5.40
2019-01-10T14:23:45.317Z,14.03
2019-01-10T14:25:50.073Z,5.23
2019-01-10T14:27:59.485Z,6.20
2019-01-10T14:30:01.430Z,6.90
2019-01-10T14:32:06.194Z,6.57
2019-01-10T14:34:14.197Z,5.30
2019-01-10T14:36:17.490Z,3.97
2019-01-10T14:38:22.329Z,3.40
2019-01-10T14:40:27.211Z,10.37
2019-01-10T14:42:32.158Z,13.50
2019-01-10T14:44:42.973Z,9.37
2019-01-10T14:46:47.930Z,7.33
2019-01-10T14:48:53.255Z,12.47
2019-01-10T14:51:01.622Z,7.00
2019-01-10T14:53:07.375Z,13.30
2019-01-10T14:55:12.956Z,6.30
2019-01-10T14:57:17.791Z,8.00
2019-01-10T14:59:22.875Z,5.37
2019-01-10T15:01:27.734Z,6.70
2019-01-10T15:03:32.666Z,5.00
2019-01-10T15:05:37.459Z,4.17
2019-01-10T15:07:42.403Z,3.87
2019-01-10T15:09:47.301Z,3.40
2019-01-10T15:11:52.195Z,3.23
2019-01-10T15:13:56.947Z,4.67
2019-01-10T15:16:07.445Z,13.57
2019-01-10T15:18:12.362Z,20.03
2019-01-10T15:20:19.980Z,10.70
2019-01-10T15:22:24.843Z,11.27
2019-01-10T15:24:29.630Z,11.10
2019-01-10T15:26:34.454Z,11.17
2019-01-10T15:28:39.667Z,10.43
2019-01-10T15:30:45.036Z,7.20
2019-01-10T15:32:57.847Z,5.27
2019-01-10T15:35:02.716Z,5.57
2019-01-10T15:37:07.594Z,5.50
2019-01-10T15:39:12.892Z,6.80
2019-01-10T15:41:18.074Z,5.50
2019-01-10T15:43:22.870Z,4.40
2019-01-10T15:45:28.232Z,3.90
2019-01-10T15:47:33.462Z,4.40
2019-01-10T15:49:38.382Z,4.70
2019-01-10T15:51:43.882Z,4.60
2019-01-10T15:53:48.720Z,20.07
2019-01-10T15:55:59.455Z,24.60
2019-01-10T15:58:07.198Z,15.40
2019-01-10T16:00:16.277Z,15.00
2019-01-10T16:02:22.199Z,30.23
2019-01-10T16:04:27.047Z,31.00
2019-01-10T16:06:31.845Z,37.50
2019-01-10T16:08:36.605Z,35.03
2019-01-10T16:10:41.362Z,26.23
2019-01-10T16:12:46.194Z,15.10
2019-01-10T16:14:51.165Z,11.17
2019-01-10T16:16:56.293Z,8.50
2019-01-10T16:19:02.212Z,6.77
2019-01-10T16:21:07.097Z,5.47
2019-01-10T16:23:11.833Z,5.03
2019-01-10T16:25:17.014Z,5.63
2019-01-10T16:27:21.748Z,6.60
2019-01-10T16:29:26.958Z,5.80
2019-01-10T16:31:32.191Z,6.00
2019-01-10T16:33:37.556Z,5.43
2019-01-10T16:35:42.427Z,5.00
2019-01-10T16:37:47.479Z,5.90
2019-01-10T16:39:52.997Z,4.97
2019-01-10T16:41:57.879Z,5.70
2019-01-10T16:44:08.877Z,5.63
2019-01-10T16:46:13.905Z,5.37
2019-01-10T16:48:18.870Z,5.70
2019-01-10T16:50:29.959Z,6.10
2019-01-10T16:52:34.758Z,5.10
2019-01-10T16:54:41.667Z,5.33
2019-01-10T16:56:48.461Z,5.60
2019-01-10T16:58:54.093Z,5.43
2019-01-10T17:00:59.183Z,6.50
2019-01-10T17:03:04.581Z,5.77
2019-01-10T17:05:09.528Z,6.17
2019-01-10T17:07:15.404Z,3.93
2019-01-10T17:09:20.764Z,5.30
2019-01-10T17:11:28.669Z,5.43
2019-01-10T17:13:33.897Z,4.97
2019-01-10T17:15:39.124Z,8.10
2019-01-10T17:17:53.180Z,6.90
2019-01-10T17:20:01.019Z,5.50
2019-01-10T17:22:06.267Z,5.90
2019-01-10T17:24:11.300Z,7.83
2019-01-10T17:26:16.590Z,7.27
2019-01-10T17:28:22.198Z,7.70
2019-01-10T17:30:29.015Z,7.63
2019-01-10T17:32:33.923Z,8.30
2019-01-10T17:34:38.765Z,10.20
2019-01-10T17:36:43.580Z,9.03
2019-01-10T17:38:48.732Z,6.07
2019-01-10T17:40:55.343Z,9.90
2019-01-10T17:43:00.307Z,10.83
2019-01-10T17:45:05.796Z,10.17
2019-01-10T17:47:11.455Z,8.40
2019-01-10T17:49:16.292Z,7.57
2019-01-10T17:51:21.202Z,8.67
2019-01-10T17:53:26.201Z,6.43
2019-01-10T17:55:31.268Z,8.70
2019-01-10T17:57:36.190Z,7.83
2019-01-10T17:59:41.575Z,7.73
2019-01-10T18:01:46.950Z,6.83
2019-01-10T18:03:51.877Z,8.27
2019-01-10T18:05:59.406Z,6.20
2019-01-10T18:08:05.529Z,6.40
2019-01-10T18:10:13.999Z,7.90
2019-01-10T18:12:19.986Z,8.67
2019-01-10T18:14:28.488Z,11.13
2019-01-10T18:16:33.905Z,17.40
2019-01-10T18:18:41.024Z,20.43
2019-01-10T18:20:45.857Z,25.90
2019-01-10T18:22:50.818Z,15.77
2019-01-10T18:24:55.795Z,14.97
2019-01-10T18:27:00.764Z,12.13
2019-01-10T18:29:06.222Z,10.57
2019-01-10T18:31:11.350Z,8.53
2019-01-10T18:33:16.697Z,9.00
2019-01-10T18:35:26.579Z,8.97
2019-01-10T18:37:33.052Z,11.80
2019-01-10T18:39:41.059Z,11.77
2019-01-10T18:41:46.351Z,16.03
2019-01-10T18:43:51.686Z,12.90
2019-01-10T18:45:56.563Z,11.13
2019-01-10T18:48:01.848Z,10.00
2019-01-10T18:50:09.670Z,8.43
2019-01-10T18:52:14.493Z,9.30
2019-01-10T18:54:21.439Z,12.10
2019-01-10T18:56:26.937Z,13.87
2019-01-10T18:58:37.231Z,11.10
2019-01-10T19:01:15.800Z,9.40
2019-01-10T19:03:41.113Z,8.03
2019-01-10T19:11:07.887Z,12.73
2019-01-10T19:13:14.013Z,10.93
2019-01-10T19:15:22.846Z,10.50
2019-01-10T19:17:29.058Z,11.00
2019-01-10T19:19:34.438Z,9.13
2019-01-10T19:21:41.342Z,7.30
2019-01-10T19:23:50.409Z,7.00
2019-01-10T19:25:56.128Z,6.73
2019-01-10T19:28:01.292Z,7.63
2019-01-10T19:30:10.669Z,6.70
2019-01-10T19:32:16.747Z,5.30
2019-01-10T19:34:26.503Z,6.17
2019-01-10T19:45:20.745Z,9.20
2019-01-10T19:47:56.571Z,6.97
2019-01-10T19:50:24.945Z,5.70
2019-01-10T19:52:39.724Z,5.13
2019-01-10T19:55:12.454Z,4.57
2019-01-10T19:57:24.244Z,5.47
2019-01-10T19:59:29.499Z,4.37
2019-01-10T20:01:37.694Z,3.80
2019-01-10T20:03:41.728Z,3.60
2019-01-10T20:05:46.890Z,3.53
2019-01-10T20:07:51.962Z,3.50
2019-01-10T20:09:57.594Z,3.83
2019-01-10T20:12:02.771Z,3.87
2019-01-10T20:14:26.193Z,4.50
2019-01-10T20:16:33.621Z,4.23
2019-01-10T20:18:38.375Z,5.60
2019-01-10T20:20:43.865Z,6.70
2019-01-10T20:22:48.941Z,7.27
2019-01-10T20:24:53.747Z,5.20
2019-01-10T20:26:58.791Z,4.20
2019-01-10T20:29:03.573Z,4.87
2019-01-10T20:31:08.400Z,6.27
2019-01-10T20:33:13.161Z,6.37
2019-01-10T20:35:18.361Z,4.03
2019-01-10T20:37:23.611Z,4.30
2019-01-10T20:39:28.603Z,4.30
2019-01-10T20:41:33.405Z,13.40
2019-01-10T20:43:38.291Z,6.73
2019-01-10T20:45:43.463Z,16.67
2019-01-10T20:47:49.516Z,11.17
2019-01-10T20:49:54.628Z,4.90
2019-01-10T20:52:03.500Z,18.77
2019-01-10T20:54:09.882Z,7.27
2019-01-10T20:56:15.809Z,4.87
2019-01-10T20:58:29.883Z,3.00
2019-01-10T21:00:34.704Z,2.80
2019-01-10T21:03:00.061Z,3.63
2019-01-10T21:05:05.656Z,3.80
2019-01-10T21:07:14.940Z,4.07
2019-01-10T21:09:20.155Z,3.47
2019-01-10T21:11:29.686Z,3.37
2019-01-10T21:13:34.855Z,4.50
2019-01-10T21:15:41.279Z,4.57
2019-01-10T21:17:46.957Z,3.70
2019-01-10T21:19:52.252Z,2.87
2019-01-10T21:21:57.224Z,2.90
2019-01-10T21:24:02.205Z,3.10
2019-01-10T21:26:07.031Z,3.17
2019-01-10T21:28:12.318Z,3.03
2019-01-10T21:30:18.987Z,2.93
2019-01-10T21:32:24.083Z,3.37
2019-01-10T21:34:28.919Z,3.17
2019-01-10T21:36:33.709Z,4.00
2019-01-10T21:38:38.714Z,3.00
2019-01-10T21:40:43.670Z,3.23
2019-01-10T21:42:54.108Z,3.90
2019-01-10T21:45:05.126Z,2.93
2019-01-10T21:47:10.080Z,3.13
2019-01-10T21:49:15.402Z,2.60
2019-01-10T21:51:20.430Z,2.07
2019-01-10T21:53:25.408Z,2.90
2019-01-10T21:55:30.429Z,2.37
2019-01-10T21:57:35.546Z,2.57
2019-01-10T21:59:50.543Z,2.73
2019-01-10T22:01:55.883Z,3.07
2019-01-10T22:04:01.051Z,2.50
2019-01-10T22:06:05.923Z,2.60
2019-01-10T22:08:11.137Z,2.60
2019-01-10T22:10:15.986Z,2.63
2019-01-10T22:12:21.101Z,2.90
2019-01-10T22:14:26.647Z,3.30
2019-01-10T22:16:32.038Z,3.03
2019-01-10T22:18:41.442Z,3.70
2019-01-10T22:20:47.035Z,3.20
2019-01-10T22:22:52.310Z,3.53
2019-01-10T22:24:59.904Z,3.03
2019-01-10T22:27:07.750Z,3.97
2019-01-10T22:29:12.578Z,3.70
2019-01-10T22:31:18.104Z,4.00
2019-01-10T22:33:25.918Z,3.77
2019-01-10T22:35:32.215Z,3.97
2019-01-10T22:37:37.278Z,3.70
2019-01-10T22:39:42.281Z,3.67
2019-01-10T22:41:47.493Z,4.10
2019-01-10T22:44:02.750Z,3.70
2019-01-10T22:45:59.336Z,4.20
2019-01-10T22:48:04.440Z,4.40
2019-01-10T22:50:10.750Z,4.07
2019-01-10T22:52:15.722Z,4.40
2019-01-10T22:54:20.871Z,4.87
2019-01-10T22:56:25.780Z,4.10
2019-01-10T22:58:32.201Z,4.23
2019-01-10T23:01:14.023Z,4.00
2019-01-10T23:03:21.721Z,4.30
2019-01-10T23:05:26.628Z,3.43
2019-01-10T23:07:31.891Z,4.07
2019-01-10T23:09:36.919Z,3.93
2019-01-10T23:11:41.836Z,3.70
2019-01-10T23:13:55.496Z,3.53
2019-01-10T23:16:00.670Z,3.97
2019-01-10T23:18:07.172Z,3.73
2019-01-10T23:20:12.540Z,3.60
2019-01-10T23:22:18.758Z,4.00
2019-01-10T23:24:26.854Z,3.53
2019-01-10T23:26:32.063Z,4.40
2019-01-10T23:28:43.545Z,4.80
2019-01-10T23:30:53.656Z,4.47
2019-01-10T23:33:00.438Z,3.80
2019-01-10T23:35:06.114Z,4.20
2019-01-10T23:37:17.534Z,5.07
2019-01-10T23:39:23.681Z,3.87
2019-01-10T23:41:31.655Z,4.63
2019-01-10T23:43:36.998Z,3.97
2019-01-10T23:45:42.023Z,4.10
2019-01-10T23:47:46.940Z,4.10
2019-01-10T23:49:52.078Z,4.10
2019-01-10T23:51:57.212Z,3.70
2019-01-10T23:54:05.187Z,4.13
2019-01-10T23:56:15.917Z,4.20
2019-01-10T23:58:21.249Z,4.27
